Airfield :
LOGIN :

Register | Disclaimer

   EN    FR    IT 

 










Legend :    VFR   Marginal VFR   IFR   Intensive IFR   Very Intensive IFR
Visi :
Ceiling :
>= 8 km
>= 3000ft
5 to 8 km
1000 to 3000 ft
1500m to 5 km
500 to 1000 ft
800 to 1500m
200 to 500 ft
< 800m
< 200 ft
Symbols :   Thunderstorms  Fog  Heavy snow  Heavy precipitations  Wind > 20 kt
SIGMETs :     Misc.  Thunderstorms  Icing  Turbulence  Mountain Waves  Volcanic Ashes






- Airport Elevation : 433 ft


LFOC - Chateaudun

CURRENT METAR :
  • 170130Z AUTO 22011KT 9999 SCT009/// OVC130/// ///CB 08/07 Q1017

EXPIRED METARs :
  • 170100Z AUTO 22011KT 9999 FEW011/// SCT076/// BKN100/// ///CB 08/07 Q1017
  • 170030Z AUTO 22011KT 9999 FEW012/// SCT066/// OVC082/// ///CB 08/07 Q1017
  • 170000Z AUTO 22011KT 9999 -RA SCT012/// SCT041/// BKN064/// ///CB 08/07 Q1016
  • 162330Z AUTO 22013KT 9999 -RA ///CB 08/07 Q1016
  • 162300Z AUTO 23013KT 9999 -RA FEW012/// SCT022/// BKN066/// ///CB 08/07 Q1015
  • 162230Z AUTO 24014KT 9999 -RA FEW013/// SCT020/// BKN029/// ///CB 08/07 Q1015

Expired Forecast.



MET'MAP, your aeronautical weather chart ! - Copyright ORBIFLY December 2007 - Disclaimer

ORBIFLY MET'MAP TEAM :

Programming & Development : Alexandra Zaïnal
Concept & original design : Baudouin d'Aumeries
Assistance for programming : Marc-Olivier Méhu
Technical & hardware support : Manuel Goepfert

Contact : metmap@orbifly.com




SOURCES & CREDITS :

   NOAA